createdAt,value
2022-09-04T00:02:38.414Z,76.60
2022-09-04T00:05:20.276Z,76.80
2022-09-04T00:08:05.299Z,76.80
2022-09-04T00:10:41.792Z,76.90
2022-09-04T00:13:14.047Z,76.60
2022-09-04T00:15:46.872Z,76.80
2022-09-04T00:18:27.123Z,76.90
2022-09-04T00:20:59.856Z,77.10
2022-09-04T00:23:37.337Z,77.90
2022-09-04T00:26:14.230Z,77.30
2022-09-04T00:28:46.745Z,77.50
2022-09-04T00:31:26.981Z,77.60
2022-09-04T00:34:07.796Z,77.80
2022-09-04T00:36:39.172Z,77.70
2022-09-04T00:39:14.131Z,77.50
2022-09-04T00:41:54.210Z,77.70
2022-09-04T00:44:43.419Z,77.20
2022-09-04T00:47:35.583Z,77.00
2022-09-04T00:50:21.411Z,76.90
2022-09-04T00:53:40.496Z,77.30
2022-09-04T00:56:33.719Z,77.20
2022-09-04T00:59:12.849Z,77.50
2022-09-04T01:01:42.426Z,76.90
2022-09-04T01:04:32.225Z,77.20
2022-09-04T01:07:23.519Z,77.50
2022-09-04T01:10:19.544Z,77.30
2022-09-04T01:12:56.450Z,77.40
2022-09-04T01:15:36.029Z,77.20
2022-09-04T01:18:10.774Z,77.00
2022-09-04T01:21:07.712Z,77.00
2022-09-04T01:23:57.835Z,77.00
2022-09-04T01:26:37.592Z,77.40
2022-09-04T01:29:17.626Z,77.20
2022-09-04T01:31:52.005Z,77.00
2022-09-04T01:34:41.259Z,77.20
2022-09-04T01:37:32.018Z,77.60
2022-09-04T01:40:13.941Z,77.50
2022-09-04T01:42:48.834Z,77.10
2022-09-04T01:45:26.708Z,77.00
2022-09-04T01:48:01.447Z,76.80
2022-09-04T01:50:33.045Z,76.80
2022-09-04T01:53:07.844Z,77.00
2022-09-04T01:55:46.337Z,77.00
2022-09-04T01:58:24.127Z,77.00
2022-09-04T02:01:01.186Z,77.00
2022-09-04T02:03:40.321Z,76.80
2022-09-04T02:06:17.215Z,76.80
2022-09-04T02:08:57.940Z,77.00
2022-09-04T02:11:29.875Z,77.10
2022-09-04T02:14:17.901Z,77.20
2022-09-04T02:16:57.882Z,77.40
2022-09-04T02:23:17.528Z,77.40
2022-09-04T02:25:52.081Z,77.30
2022-09-04T02:28:31.378Z,77.70
2022-09-04T02:31:10.068Z,77.60
2022-09-04T02:33:43.668Z,77.60
2022-09-04T02:36:20.794Z,77.50
2022-09-04T02:38:57.529Z,77.60
2022-09-04T02:41:34.649Z,77.50
2022-09-04T02:44:19.190Z,77.70
2022-09-04T02:47:01.649Z,77.60
2022-09-04T02:49:39.644Z,77.30
2022-09-04T02:52:21.955Z,77.10
2022-09-04T02:55:05.458Z,77.50
2022-09-04T02:57:43.615Z,77.90
2022-09-04T03:00:18.191Z,77.60
2022-09-04T03:02:54.025Z,77.50
2022-09-04T03:05:26.278Z,77.50
2022-09-04T03:08:02.884Z,77.70
2022-09-04T03:10:35.961Z,77.90
2022-09-04T03:13:12.092Z,77.80
2022-09-04T03:15:46.376Z,77.70
2022-09-04T03:18:23.539Z,77.50
2022-09-04T03:20:56.594Z,77.50
2022-09-04T03:23:34.532Z,77.50
2022-09-04T03:26:18.317Z,77.30
2022-09-04T03:29:01.516Z,77.30
2022-09-04T03:31:35.393Z,77.50
2022-09-04T03:34:21.567Z,77.50
2022-09-04T03:37:00.532Z,77.30
2022-09-04T03:39:39.659Z,77.40
2022-09-04T03:42:15.288Z,77.30
2022-09-04T03:44:53.843Z,77.50
2022-09-04T03:47:31.688Z,77.40
2022-09-04T03:50:12.302Z,77.20
2022-09-04T03:52:56.440Z,77.40
2022-09-04T03:55:41.604Z,77.40
2022-09-04T03:58:18.342Z,77.40
2022-09-04T04:00:57.317Z,77.30
2022-09-04T04:03:48.850Z,77.10
2022-09-04T04:06:28.361Z,77.30
2022-09-04T04:09:41.620Z,77.20
2022-09-04T04:12:30.217Z,78.40
2022-09-04T04:15:14.455Z,77.60
2022-09-04T04:17:59.808Z,77.80
2022-09-04T04:20:42.259Z,77.60
2022-09-04T04:23:29.941Z,77.60
2022-09-04T04:26:10.074Z,77.80
2022-09-04T04:29:00.359Z,77.80
2022-09-04T04:31:46.808Z,77.80
2022-09-04T04:34:25.971Z,77.60
2022-09-04T04:37:01.818Z,77.40
2022-09-04T04:39:37.144Z,77.60
2022-09-04T04:42:21.344Z,77.70
2022-09-04T04:45:28.960Z,77.80
2022-09-04T04:48:21.690Z,77.80
2022-09-04T04:50:59.946Z,77.80
2022-09-04T04:53:34.127Z,77.60
2022-09-04T04:56:15.531Z,77.30
2022-09-04T04:58:59.839Z,77.40
2022-09-04T05:01:42.560Z,77.10
2022-09-04T05:04:19.247Z,77.10
2022-09-04T05:06:54.014Z,77.10
2022-09-04T05:09:33.901Z,77.00
2022-09-04T05:12:12.204Z,77.10
2022-09-04T05:14:50.218Z,77.10
2022-09-04T05:17:28.360Z,77.30
2022-09-04T05:20:22.157Z,77.30
2022-09-04T05:22:58.415Z,77.60
2022-09-04T05:25:37.031Z,77.60
2022-09-04T05:28:20.525Z,77.60
2022-09-04T05:30:54.198Z,77.50
2022-09-04T05:33:43.179Z,78.50
2022-09-04T05:36:19.601Z,77.30
2022-09-04T05:38:58.112Z,77.30
2022-09-04T05:41:41.274Z,77.20
2022-09-04T05:44:29.739Z,77.60
2022-09-04T05:47:11.265Z,77.60
2022-09-04T05:49:56.742Z,77.80
2022-09-04T05:52:43.905Z,77.90
2022-09-04T05:55:32.320Z,77.90
2022-09-04T05:58:26.209Z,78.10
2022-09-04T06:01:06.345Z,78.20
2022-09-04T06:04:19.590Z,78.00
2022-09-04T06:06:58.019Z,77.90
2022-09-04T06:09:40.676Z,77.80
2022-09-04T06:12:24.786Z,77.90
2022-09-04T06:15:17.214Z,78.00
2022-09-04T06:18:08.163Z,78.30
2022-09-04T06:20:47.513Z,78.40
2022-09-04T06:23:27.493Z,78.40
2022-09-04T06:26:26.136Z,78.60
2022-09-04T06:29:25.883Z,78.70
2022-09-04T06:32:08.825Z,78.80
2022-09-04T06:34:59.792Z,78.70
2022-09-04T06:37:38.391Z,78.90
2022-09-04T06:40:22.552Z,78.90
2022-09-04T06:43:05.298Z,79.20
2022-09-04T06:45:44.864Z,79.60
2022-09-04T06:48:22.970Z,79.60
2022-09-04T06:51:03.971Z,79.90
2022-09-04T06:53:42.654Z,80.10
2022-09-04T06:56:42.094Z,80.50
2022-09-04T06:59:41.666Z,80.70
2022-09-04T07:02:24.766Z,80.90
2022-09-04T07:05:10.366Z,81.20
2022-09-04T07:07:45.582Z,81.60
2022-09-04T07:10:17.723Z,82.00
2022-09-04T07:13:13.944Z,82.00
2022-09-04T07:15:57.434Z,82.50
2022-09-04T07:18:49.734Z,82.70
2022-09-04T07:21:27.793Z,83.10
2022-09-04T07:24:07.306Z,82.70
2022-09-04T07:26:40.777Z,82.60
2022-09-04T07:29:30.812Z,82.70
2022-09-04T07:32:04.428Z,83.30
2022-09-04T07:34:42.081Z,82.40
2022-09-04T07:37:25.113Z,82.10
2022-09-04T07:40:04.444Z,82.10
2022-09-04T07:42:43.439Z,81.80
2022-09-04T07:45:23.162Z,81.40
2022-09-04T07:48:01.546Z,81.70
2022-09-04T07:50:36.434Z,82.00
2022-09-04T07:53:24.167Z,80.80
2022-09-04T07:55:59.315Z,81.20
2022-09-04T07:58:55.494Z,81.40
2022-09-04T08:01:56.352Z,80.90
2022-09-04T08:05:05.905Z,80.50
2022-09-04T08:08:07.613Z,80.20
2022-09-04T08:10:43.278Z,79.70
2022-09-04T08:13:28.852Z,80.20
2022-09-04T08:16:07.554Z,79.10
2022-09-04T08:19:07.155Z,79.90
2022-09-04T08:21:39.511Z,79.30
2022-09-04T08:24:45.749Z,79.30
2022-09-04T08:27:29.985Z,79.00
2022-09-04T08:30:05.426Z,78.90
2022-09-04T08:33:11.427Z,78.60
2022-09-04T08:35:48.968Z,78.20
2022-09-04T08:38:32.834Z,78.30
2022-09-04T08:41:40.019Z,78.60
2022-09-04T08:44:33.315Z,78.40
2022-09-04T08:47:36.312Z,78.00
2022-09-04T08:50:25.734Z,78.20
2022-09-04T08:53:56.304Z,78.30
2022-09-04T08:56:31.191Z,77.80
2022-09-04T08:59:53.905Z,77.60
2022-09-04T09:02:52.328Z,78.00
2022-09-04T09:05:56.194Z,77.40
2022-09-04T09:08:45.631Z,77.30
2022-09-04T09:11:33.273Z,77.30
2022-09-04T09:14:24.022Z,77.70
2022-09-04T09:17:03.180Z,77.70
2022-09-04T09:19:47.611Z,77.90
2022-09-04T09:22:36.117Z,77.50
2022-09-04T09:25:21.011Z,77.10
2022-09-04T09:28:33.426Z,76.80
2022-09-04T09:31:27.431Z,76.70
2022-09-04T09:34:25.642Z,76.70
2022-09-04T09:37:28.589Z,77.40
2022-09-04T09:40:24.443Z,76.50
2022-09-04T09:43:27.619Z,76.30
2022-09-04T09:46:34.491Z,76.30
2022-09-04T09:49:34.292Z,76.60
2022-09-04T09:52:24.364Z,76.50
2022-09-04T09:55:32.830Z,76.00
2022-09-04T09:58:32.098Z,78.10
2022-09-04T10:01:20.075Z,76.20
2022-09-04T10:04:17.901Z,76.60
2022-09-04T10:07:23.849Z,76.00
2022-09-04T10:10:31.305Z,76.30
2022-09-04T10:13:20.964Z,75.80
2022-09-04T10:16:27.785Z,75.60
2022-09-04T10:19:31.449Z,75.20
2022-09-04T10:22:24.718Z,75.50
2022-09-04T10:25:43.103Z,75.30
2022-09-04T10:28:47.914Z,74.70
2022-09-04T10:31:39.674Z,74.80
2022-09-04T10:34:24.731Z,74.60
2022-09-04T10:37:09.220Z,74.40
2022-09-04T10:40:10.742Z,74.20
2022-09-04T10:42:49.900Z,74.20
2022-09-04T10:45:27.741Z,74.00
2022-09-04T10:48:36.131Z,73.30
2022-09-04T10:51:28.062Z,73.50
2022-09-04T10:54:26.615Z,73.90
2022-09-04T10:57:09.220Z,73.40
2022-09-04T10:59:58.845Z,73.10
2022-09-04T11:02:57.937Z,72.60
2022-09-04T11:05:53.190Z,73.00
2022-09-04T11:08:53.932Z,72.70
2022-09-04T11:11:50.438Z,73.30
2022-09-04T11:14:43.448Z,71.60
2022-09-04T11:17:42.175Z,71.10
2022-09-04T11:20:46.555Z,70.40
2022-09-04T11:23:51.950Z,70.30
2022-09-04T11:26:55.154Z,70.00
2022-09-04T11:29:41.284Z,69.40
2022-09-04T11:32:42.166Z,69.30
2022-09-04T11:35:58.433Z,68.30
2022-09-04T11:38:58.486Z,67.70
2022-09-04T11:42:08.446Z,67.70
2022-09-04T11:44:52.868Z,67.40
2022-09-04T11:47:40.554Z,66.90
2022-09-04T11:50:24.869Z,66.50
2022-09-04T11:53:23.213Z,66.40
2022-09-04T11:56:17.525Z,65.70
2022-09-04T11:59:00.351Z,65.20
2022-09-04T12:01:47.957Z,65.30
2022-09-04T12:04:35.174Z,65.10
2022-09-04T12:07:20.088Z,65.10
2022-09-04T12:10:18.063Z,64.80
2022-09-04T12:13:16.012Z,64.30
2022-09-04T12:16:11.379Z,63.70
2022-09-04T12:19:26.800Z,62.70
2022-09-04T12:22:31.771Z,62.20
2022-09-04T12:25:29.968Z,62.60
2022-09-04T12:28:39.478Z,61.00
2022-09-04T12:31:28.021Z,61.50
2022-09-04T12:34:13.360Z,61.20
2022-09-04T12:37:11.896Z,60.30
2022-09-04T12:40:18.563Z,59.70
2022-09-04T12:42:57.868Z,59.40
2022-09-04T12:45:33.565Z,59.60
2022-09-04T12:48:09.677Z,59.70
2022-09-04T12:50:45.455Z,59.20
2022-09-04T12:53:33.796Z,59.00
2022-09-04T12:56:11.948Z,58.20
2022-09-04T12:59:16.110Z,57.60
2022-09-04T13:01:57.517Z,57.70
2022-09-04T13:04:34.594Z,58.00
2022-09-04T13:07:24.565Z,57.00
2022-09-04T13:10:04.435Z,56.80
2022-09-04T13:12:45.402Z,57.10
2022-09-04T13:15:31.739Z,57.20
2022-09-04T13:18:14.298Z,56.30
2022-09-04T13:20:51.515Z,56.30
2022-09-04T13:23:50.631Z,55.70
2022-09-04T13:26:33.553Z,55.20
2022-09-04T13:29:17.689Z,54.10
2022-09-04T13:32:05.855Z,52.90
2022-09-04T13:34:48.919Z,54.40
2022-09-04T13:37:23.862Z,54.40
2022-09-04T13:40:25.117Z,54.60
2022-09-04T13:43:26.082Z,52.50
2022-09-04T13:45:59.208Z,53.20
2022-09-04T13:48:38.029Z,53.80
2022-09-04T13:51:13.405Z,52.80
2022-09-04T13:54:03.171Z,51.80
2022-09-04T13:56:35.568Z,52.70
2022-09-04T13:59:09.682Z,53.40
2022-09-04T14:01:46.507Z,53.40
2022-09-04T14:04:19.441Z,53.50
2022-09-04T14:06:49.664Z,53.50
2022-09-04T14:09:18.872Z,53.30
2022-09-04T14:12:13.795Z,53.10
2022-09-04T14:15:10.987Z,52.10
2022-09-04T14:17:51.061Z,51.40
2022-09-04T14:20:24.925Z,51.80
2022-09-04T14:23:04.334Z,51.70
2022-09-04T14:25:39.383Z,51.80
2022-09-04T14:28:17.165Z,51.30
2022-09-04T14:30:58.566Z,51.70
2022-09-04T14:33:37.585Z,51.90
2022-09-04T14:36:22.976Z,51.50
2022-09-04T14:39:02.777Z,51.60
2022-09-04T14:41:43.466Z,51.70
2022-09-04T14:44:22.159Z,52.10
2022-09-04T14:47:03.796Z,51.20
2022-09-04T14:49:34.578Z,52.20
2022-09-04T14:52:11.177Z,52.70
2022-09-04T14:54:43.930Z,51.70
2022-09-04T14:57:20.169Z,52.10
2022-09-04T14:59:58.135Z,51.40
2022-09-04T15:02:34.477Z,51.50
2022-09-04T15:05:16.532Z,51.20
2022-09-04T15:08:00.799Z,51.20
2022-09-04T15:10:36.284Z,50.90
2022-09-04T15:13:39.001Z,50.90
2022-09-04T15:16:18.407Z,51.00
2022-09-04T15:19:07.272Z,50.80
2022-09-04T15:21:46.637Z,50.70
2022-09-04T15:24:25.761Z,50.60
2022-09-04T15:27:01.535Z,50.80
2022-09-04T15:29:37.570Z,50.40
2022-09-04T15:32:14.008Z,49.80
2022-09-04T15:34:42.990Z,49.20
2022-09-04T15:37:20.155Z,49.50
2022-09-04T15:39:59.218Z,48.60
2022-09-04T15:42:40.229Z,49.30
2022-09-04T15:45:16.817Z,49.00
2022-09-04T15:48:03.303Z,48.80
2022-09-04T15:50:35.984Z,48.10
2022-09-04T15:53:16.954Z,47.80
2022-09-04T15:55:47.441Z,48.00
2022-09-04T15:58:21.837Z,48.10
2022-09-04T16:01:13.377Z,47.70
2022-09-04T16:04:00.223Z,47.70
2022-09-04T16:06:32.723Z,47.80
2022-09-04T16:09:07.157Z,48.00
2022-09-04T16:11:38.557Z,48.40
2022-09-04T16:14:10.221Z,48.60
2022-09-04T16:16:44.637Z,48.80
2022-09-04T16:19:26.595Z,49.00
2022-09-04T16:22:05.532Z,49.20
2022-09-04T16:24:41.926Z,49.20
2022-09-04T16:27:14.939Z,49.30
2022-09-04T16:29:48.218Z,49.40
2022-09-04T16:32:23.331Z,49.60
2022-09-04T16:34:55.637Z,49.80
2022-09-04T16:37:30.934Z,50.10
2022-09-04T16:40:16.270Z,50.20
2022-09-04T16:42:51.209Z,50.40
2022-09-04T16:45:24.785Z,50.60
2022-09-04T16:48:00.581Z,50.70
2022-09-04T16:50:55.370Z,50.70
2022-09-04T16:53:37.423Z,50.90
2022-09-04T16:56:16.327Z,51.30
2022-09-04T16:58:54.969Z,51.60
2022-09-04T17:01:30.007Z,51.70
2022-09-04T17:04:24.899Z,51.50
2022-09-04T17:07:03.533Z,51.80
2022-09-04T17:09:45.513Z,52.00
2022-09-04T17:12:49.672Z,52.20
2022-09-04T17:15:27.383Z,52.50
2022-09-04T17:17:56.406Z,52.70
2022-09-04T17:21:00.278Z,52.70
2022-09-04T17:29:00.320Z,52.80
2022-09-04T17:29:13.396Z,52.90
2022-09-04T17:29:34.473Z,52.90
2022-09-04T17:32:36.864Z,52.90
2022-09-04T17:40:39.499Z,53.10
2022-09-04T17:40:54.442Z,53.30
2022-09-04T17:41:40.236Z,53.50
2022-09-04T17:44:03.534Z,53.90
2022-09-04T17:46:40.329Z,54.00
2022-09-04T17:49:17.620Z,54.20
2022-09-04T17:51:52.322Z,54.60
2022-09-04T17:54:28.781Z,53.90
2022-09-04T17:57:03.189Z,53.80
2022-09-04T17:59:40.515Z,54.10
2022-09-04T18:02:19.946Z,54.10
2022-09-04T18:04:53.634Z,54.50
2022-09-04T18:08:07.492Z,54.60
2022-09-04T18:10:28.420Z,54.60
2022-09-04T18:13:06.451Z,54.60
2022-09-04T18:15:39.466Z,54.70
2022-09-04T18:18:14.720Z,54.50
2022-09-04T18:20:51.890Z,55.00
2022-09-04T18:23:52.429Z,55.30
2022-09-04T18:26:38.499Z,55.40
2022-09-04T18:33:55.676Z,55.40
2022-09-04T18:37:11.912Z,55.50
2022-09-04T18:37:18.211Z,55.30
2022-09-04T18:38:28.159Z,55.20
2022-09-04T18:44:44.573Z,55.10
2022-09-04T18:50:31.589Z,55.20
2022-09-04T18:50:33.994Z,55.30
2022-09-04T18:50:45.518Z,55.50
2022-09-04T18:52:30.229Z,55.40
2022-09-04T18:55:03.243Z,55.40
2022-09-04T18:57:36.294Z,55.60
2022-09-04T19:00:10.901Z,55.80
2022-09-04T19:02:53.081Z,55.90
2022-09-04T19:05:24.533Z,56.00
2022-09-04T19:07:58.469Z,55.90
2022-09-04T19:10:29.292Z,56.20
2022-09-04T19:13:05.415Z,56.30
2022-09-04T19:15:50.790Z,56.40
2022-09-04T19:18:27.247Z,56.60
2022-09-04T19:21:14.665Z,56.60
2022-09-04T19:23:50.170Z,56.50
2022-09-04T19:26:24.383Z,56.40
2022-09-04T19:28:57.652Z,56.60
2022-09-04T19:31:32.048Z,56.50
2022-09-04T19:34:08.893Z,56.60
2022-09-04T19:36:44.246Z,56.70
2022-09-04T19:45:39.633Z,56.60
2022-09-04T19:46:00.354Z,56.90
2022-09-04T19:46:15.284Z,56.80
2022-09-04T19:48:28.901Z,57.10
2022-09-04T19:53:31.294Z,57.10
2022-09-04T19:53:58.740Z,57.10
2022-09-04T19:56:51.828Z,57.30
2022-09-04T19:59:27.534Z,57.30
2022-09-04T20:01:58.121Z,57.20
2022-09-04T20:04:37.264Z,57.30
2022-09-04T20:07:13.844Z,57.30
2022-09-04T20:09:47.554Z,57.30
2022-09-04T20:12:22.136Z,57.50
2022-09-04T20:14:55.255Z,57.60
2022-09-04T20:17:55.605Z,57.70
2022-09-04T20:20:26.543Z,57.90
2022-09-04T20:22:59.179Z,57.70
2022-09-04T20:25:33.365Z,57.80
2022-09-04T20:28:21.703Z,57.90
2022-09-04T20:31:05.139Z,58.10
2022-09-04T20:33:59.693Z,58.20
2022-09-04T20:36:33.641Z,58.10
2022-09-04T20:39:08.594Z,58.50
2022-09-04T20:41:49.848Z,59.20
2022-09-04T20:44:26.535Z,58.80
2022-09-04T20:52:46.368Z,59.10
2022-09-04T20:52:59.315Z,58.80
2022-09-04T20:53:12.031Z,59.10
2022-09-04T20:55:51.870Z,59.30
2022-09-04T21:03:05.536Z,59.50
2022-09-04T21:03:21.497Z,59.90
2022-09-04T21:04:41.986Z,59.90
2022-09-04T21:07:23.162Z,60.00
2022-09-04T21:10:05.893Z,60.10
2022-09-04T21:12:41.993Z,60.30
2022-09-04T21:15:16.556Z,60.10
2022-09-04T21:18:14.372Z,60.50
2022-09-04T21:21:24.741Z,60.60
2022-09-04T21:24:18.115Z,60.50
2022-09-04T21:27:15.604Z,61.40
2022-09-04T21:29:59.446Z,60.50
2022-09-04T21:32:44.234Z,60.50
2022-09-04T21:35:21.297Z,60.60
2022-09-04T21:37:59.109Z,60.70
2022-09-04T21:41:14.566Z,61.00
2022-09-04T21:44:12.479Z,61.00
2022-09-04T21:47:08.512Z,61.10
2022-09-04T21:50:23.814Z,61.30
2022-09-04T21:53:21.017Z,61.40
2022-09-04T22:00:56.283Z,61.60
2022-09-04T22:02:40.982Z,61.50
2022-09-04T22:02:52.798Z,61.70
2022-09-04T22:05:22.854Z,61.60
2022-09-04T22:11:56.885Z,62.30
2022-09-04T22:13:43.202Z,61.40
2022-09-04T22:14:03.343Z,61.80
2022-09-04T22:16:51.592Z,62.00
2022-09-04T22:20:00.535Z,62.00
2022-09-04T22:22:46.714Z,62.20
2022-09-04T22:25:36.051Z,62.20
2022-09-04T22:28:38.953Z,62.20
2022-09-04T22:31:57.918Z,62.50
2022-09-04T22:35:04.635Z,62.50
2022-09-04T22:38:06.679Z,62.60
2022-09-04T22:40:56.462Z,62.60
2022-09-04T22:43:29.279Z,62.40
2022-09-04T22:46:39.827Z,62.20
2022-09-04T22:49:36.803Z,62.50
2022-09-04T22:52:43.877Z,62.60
2022-09-04T22:55:40.155Z,62.70
2022-09-04T22:58:24.068Z,62.70
2022-09-04T23:01:15.260Z,62.70
2022-09-04T23:03:56.446Z,63.10
2022-09-04T23:10:03.396Z,62.90
2022-09-04T23:13:43.182Z,63.10
2022-09-04T23:14:05.380Z,62.90
2022-09-04T23:16:54.859Z,62.90
2022-09-04T23:26:38.978Z,63.20
2022-09-04T23:26:43.774Z,63.60
2022-09-04T23:26:46.031Z,63.40
2022-09-04T23:29:20.769Z,63.60
2022-09-04T23:32:10.162Z,63.80
2022-09-04T23:35:14.521Z,64.10
2022-09-04T23:38:09.610Z,64.20
2022-09-04T23:40:44.487Z,64.20
2022-09-04T23:44:12.562Z,64.10
2022-09-04T23:47:01.718Z,64.50
2022-09-04T23:49:58.215Z,64.50
2022-09-04T23:52:48.824Z,64.70
2022-09-04T23:55:41.458Z,64.60
2022-09-04T23:58:58.052Z,64.90
